Time;durP1;ratioP1;P1;durP2;ratioP2;P2;SDS_P1;SDS_P2;PMS_P1;PMS_P2;Temp;Humidity;BMP_temperature;BMP_pressure;BME280_temperature;BME280_humidity;BME280_pressure;Samples;Min_cycle;Max_cycle;Signal;HPM_P1;HPM_P2
2023/10/21 00:00:35;;;;;;;3.80;2.60;;;14.90;99.90;;;;;;5053741;28;20998;-59
2023/10/21 00:03:01;;;;;;;3.30;3.00;;;14.90;99.90;;;;;;5054204;28;20449;-59
2023/10/21 00:05:28;;;;;;;4.33;2.70;;;14.90;99.90;;;;;;5054367;28;20449;-59
2023/10/21 00:07:55;;;;;;;4.37;3.40;;;14.90;99.90;;;;;;5053888;28;20932;-59
2023/10/21 00:10:23;;;;;;;5.37;3.70;;;14.90;99.90;;;;;;5053598;28;20477;-59
2023/10/21 00:12:49;;;;;;;4.73;2.80;;;14.90;99.90;;;;;;5054161;28;20491;-59
2023/10/21 00:15:17;;;;;;;4.73;2.80;;;14.90;99.90;;;;;;5054277;28;20444;-59
2023/10/21 00:17:43;;;;;;;8.13;3.00;;;14.90;99.90;;;;;;5054475;28;20445;-59
2023/10/21 00:20:12;;;;;;;5.60;2.60;;;14.90;99.90;;;;;;5054097;28;21049;-59
2023/10/21 00:22:38;;;;;;;5.77;2.90;;;14.90;99.90;;;;;;5054672;28;20441;-59
2023/10/21 00:25:06;;;;;;;3.60;2.73;;;15.00;99.90;;;;;;5054559;28;20446;-59
2023/10/21 00:27:34;;;;;;;6.27;3.47;;;15.00;99.90;;;;;;5055264;28;20456;-59
2023/10/21 00:30:00;;;;;;;6.40;3.07;;;15.00;99.90;;;;;;5053926;28;20446;-59
2023/10/21 00:32:27;;;;;;;3.10;2.83;;;15.00;99.90;;;;;;5054414;28;20452;-59
2023/10/21 00:34:54;;;;;;;3.57;2.80;;;15.00;99.90;;;;;;5054054;28;20453;-59
2023/10/21 00:37:21;;;;;;;5.27;2.97;;;15.00;99.90;;;;;;5053706;28;20450;-59
2023/10/21 00:39:47;;;;;;;4.60;2.50;;;15.00;99.90;;;;;;5053313;28;20477;-58
2023/10/21 00:42:14;;;;;;;5.33;3.23;;;15.00;99.90;;;;;;5053390;28;20472;-58
2023/10/21 00:44:42;;;;;;;3.93;2.70;;;14.90;99.90;;;;;;5053451;28;20472;-59
2023/10/21 00:47:09;;;;;;;3.73;2.50;;;14.90;99.90;;;;;;5053373;28;20482;-59
2023/10/21 00:49:35;;;;;;;3.10;2.57;;;15.00;99.90;;;;;;5053028;28;20445;-58
2023/10/21 00:52:04;;;;;;;3.17;2.50;;;15.00;99.90;;;;;;5053328;28;20469;-58
2023/10/21 00:54:31;;;;;;;3.63;2.30;;;14.90;99.90;;;;;;5053158;28;20441;-58
2023/10/21 00:56:58;;;;;;;3.17;2.87;;;15.00;99.90;;;;;;5054297;28;20441;-58
2023/10/21 00:59:25;;;;;;;5.13;2.77;;;15.00;99.90;;;;;;5053215;28;20512;-58
2023/10/21 01:01:53;;;;;;;2.43;2.23;;;15.00;99.90;;;;;;5055800;28;20469;-58
2023/10/21 01:04:20;;;;;;;2.60;2.40;;;15.00;99.90;;;;;;5057038;28;20448;-58
2023/10/21 01:06:47;;;;;;;3.63;2.90;;;15.00;99.90;;;;;;5057032;28;20456;-58
2023/10/21 01:09:15;;;;;;;2.53;2.33;;;15.00;99.90;;;;;;5056613;28;20943;-59
2023/10/21 01:11:42;;;;;;;2.77;2.53;;;15.00;99.90;;;;;;5056667;28;20488;-58
2023/10/21 01:14:10;;;;;;;5.40;2.90;;;15.00;99.90;;;;;;5056865;28;20483;-58
2023/10/21 01:16:36;;;;;;;3.10;2.70;;;15.00;99.90;;;;;;5056677;28;20524;-57
2023/10/21 01:19:06;;;;;;;3.37;2.60;;;15.00;99.90;;;;;;5056927;28;20473;-57
2023/10/21 01:21:32;;;;;;;3.07;2.83;;;15.00;99.90;;;;;;5056716;28;20468;-57
2023/10/21 01:24:00;;;;;;;6.03;2.30;;;15.00;99.90;;;;;;5056625;28;20820;-57
2023/10/21 01:26:27;;;;;;;5.23;3.00;;;15.00;99.90;;;;;;5056575;28;20503;-57
2023/10/21 01:28:54;;;;;;;3.50;2.50;;;15.00;99.90;;;;;;5056579;28;20457;-57
2023/10/21 01:31:21;;;;;;;2.53;2.33;;;15.00;99.90;;;;;;5056455;28;20497;-57
2023/10/21 01:33:48;;;;;;;3.20;2.90;;;15.00;99.90;;;;;;5056509;28;20450;-57
2023/10/21 01:36:15;;;;;;;3.23;2.50;;;15.00;99.90;;;;;;5056131;28;20935;-57
2023/10/21 01:38:41;;;;;;;2.43;2.23;;;15.00;99.90;;;;;;5056033;28;21029;-57
2023/10/21 01:41:10;;;;;;;3.33;2.30;;;15.10;99.90;;;;;;5056233;28;20462;-57
2023/10/21 01:43:37;;;;;;;3.00;2.50;;;15.00;99.90;;;;;;5056395;28;20474;-57
2023/10/21 01:46:05;;;;;;;2.80;2.60;;;15.10;99.90;;;;;;5055990;28;20950;-57
2023/10/21 01:48:32;;;;;;;3.77;3.20;;;15.10;99.90;;;;;;5056319;28;20924;-57
2023/10/21 01:51:04;;;;;;;5.00;3.10;;;15.10;99.90;;;;;;5055760;28;20465;-57
2023/10/21 01:53:31;;;;;;;5.57;3.17;;;15.10;99.90;;;;;;5056120;28;20449;-57
2023/10/21 01:56:01;;;;;;;5.40;3.87;;;15.00;99.90;;;;;;5056503;28;20442;-57
2023/10/21 01:58:29;;;;;;;11.13;5.30;;;15.00;99.90;;;;;;5056019;28;20855;-57
2023/10/21 02:00:56;;;;;;;7.13;3.60;;;15.10;99.90;;;;;;5056019;28;20466;-57
2023/10/21 02:03:23;;;;;;;8.77;5.07;;;15.10;99.90;;;;;;5056066;28;20437;-57
2023/10/21 02:05:50;;;;;;;4.00;3.60;;;15.00;99.90;;;;;;5055668;28;20441;-57
2023/10/21 02:08:16;;;;;;;3.63;3.30;;;15.00;99.90;;;;;;5055542;28;20821;-58
2023/10/21 02:10:43;;;;;;;4.97;3.57;;;15.00;99.90;;;;;;5055561;28;20465;-57
2023/10/21 02:13:10;;;;;;;5.30;3.37;;;14.90;99.90;;;;;;5054786;28;20446;-57
2023/10/21 02:15:38;;;;;;;3.50;3.20;;;14.90;99.90;;;;;;5055983;28;20449;-57
2023/10/21 02:18:05;;;;;;;4.47;3.40;;;14.90;99.90;;;;;;5055761;28;20453;-58
2023/10/21 02:20:32;;;;;;;3.33;2.93;;;14.90;99.90;;;;;;5055537;28;20485;-59
2023/10/21 02:22:59;;;;;;;3.13;2.93;;;14.90;99.90;;;;;;5055664;28;20445;-58
2023/10/21 02:25:25;;;;;;;5.00;3.00;;;14.90;99.90;;;;;;5055561;28;20445;-58
2023/10/21 02:27:52;;;;;;;3.27;2.90;;;14.80;99.90;;;;;;5055701;28;20438;-58
2023/10/21 02:30:19;;;;;;;3.50;3.30;;;14.90;99.90;;;;;;5055784;28;20497;-58
2023/10/21 02:32:48;;;;;;;4.33;3.30;;;14.90;99.90;;;;;;5055470;28;20452;-58
2023/10/21 02:35:16;;;;;;;3.87;3.10;;;14.90;99.90;;;;;;5055447;28;20563;-57
2023/10/21 02:37:42;;;;;;;3.97;3.00;;;14.80;99.90;;;;;;5062982;28;20445;-56
2023/10/21 02:40:10;;;;;;;3.40;3.20;;;14.90;99.90;;;;;;5075102;28;20488;-57
2023/10/21 02:42:37;;;;;;;4.87;2.80;;;14.90;99.90;;;;;;5075313;28;20476;-57
2023/10/21 02:45:05;;;;;;;3.53;2.80;;;15.00;99.90;;;;;;5075401;28;20441;-57
2023/10/21 02:47:31;;;;;;;6.93;2.97;;;15.00;99.90;;;;;;5075217;28;20441;-57
2023/10/21 02:49:59;;;;;;;3.97;3.67;;;14.90;99.90;;;;;;5075157;28;20523;-57
2023/10/21 02:52:26;;;;;;;2.60;2.40;;;14.90;99.90;;;;;;5075448;28;20441;-58
2023/10/21 02:54:53;;;;;;;2.67;1.97;;;14.90;99.90;;;;;;5074781;28;20827;-58
2023/10/21 02:57:20;;;;;;;2.17;2.03;;;14.90;99.90;;;;;;5074948;28;20495;-57
2023/10/21 02:59:47;;;;;;;3.13;1.50;;;14.90;99.90;;;;;;5074978;28;20484;-58
2023/10/21 03:02:14;;;;;;;2.40;1.50;;;14.90;99.90;;;;;;5074842;28;20469;-58
2023/10/21 03:04:40;;;;;;;1.93;1.73;;;14.90;99.90;;;;;;5074969;28;20473;-58
2023/10/21 03:07:08;;;;;;;1.90;1.47;;;14.90;99.90;;;;;;5074914;28;20449;-58
2023/10/21 03:09:35;;;;;;;3.30;1.60;;;14.90;99.90;;;;;;5074689;28;20440;-58
2023/10/21 03:12:02;;;;;;;1.57;1.50;;;14.90;99.90;;;;;;5074861;28;20905;-58
2023/10/21 03:14:29;;;;;;;1.80;1.70;;;14.90;99.90;;;;;;5074642;28;20457;-57
2023/10/21 03:16:56;;;;;;;2.40;1.43;;;14.90;99.90;;;;;;5074972;28;20449;-57
2023/10/21 03:19:22;;;;;;;4.20;1.70;;;14.90;99.90;;;;;;5074839;28;20484;-58
2023/10/21 03:21:49;;;;;;;1.47;1.37;;;15.00;99.90;;;;;;5074884;28;20460;-58
2023/10/21 03:24:17;;;;;;;3.17;2.00;;;15.00;99.90;;;;;;5074299;28;20451;-57
2023/10/21 03:26:44;;;;;;;1.50;1.40;;;15.00;99.90;;;;;;5074755;28;20536;-58
2023/10/21 03:29:11;;;;;;;3.50;1.83;;;14.90;99.90;;;;;;5075061;28;20449;-58
2023/10/21 03:31:37;;;;;;;2.03;1.90;;;15.00;99.90;;;;;;5076740;28;20468;-58
2023/10/21 03:34:04;;;;;;;1.73;1.63;;;14.90;99.90;;;;;;5075554;28;20437;-58
2023/10/21 03:36:31;;;;;;;2.43;2.00;;;14.90;99.90;;;;;;5075511;28;20467;-58
2023/10/21 03:38:57;;;;;;;2.17;1.60;;;15.00;99.90;;;;;;5074901;28;20455;-59
2023/10/21 03:41:25;;;;;;;1.90;1.70;;;15.00;99.90;;;;;;5074320;28;20476;-59
2023/10/21 03:43:52;;;;;;;1.77;1.33;;;15.00;99.90;;;;;;5074107;28;20448;-59
2023/10/21 03:46:20;;;;;;;5.17;1.57;;;15.00;99.90;;;;;;5074400;28;20524;-58
2023/10/21 03:48:47;;;;;;;1.80;1.37;;;15.00;99.90;;;;;;5074083;28;20458;-58
2023/10/21 03:51:13;;;;;;;2.90;1.57;;;15.00;99.90;;;;;;5074077;28;20503;-57
2023/10/21 03:53:41;;;;;;;1.60;1.50;;;15.00;99.90;;;;;;5074119;28;20448;-57
2023/10/21 03:56:09;;;;;;;2.80;1.60;;;15.10;99.90;;;;;;5073947;28;20441;-57
2023/10/21 03:58:37;;;;;;;1.80;1.40;;;15.10;99.90;;;;;;5073810;28;20475;-58
2023/10/21 04:01:05;;;;;;;3.20;3.00;;;15.20;99.90;;;;;;5073668;28;20484;-58
2023/10/21 04:03:32;;;;;;;2.70;1.57;;;15.20;99.90;;;;;;5073617;28;20935;-59
2023/10/21 04:05:58;;;;;;;2.70;1.50;;;15.10;99.90;;;;;;5073661;28;20444;-59
2023/10/21 04:08:27;;;;;;;1.40;1.20;;;15.20;99.90;;;;;;5073720;28;20448;-59
2023/10/21 04:10:54;;;;;;;2.80;1.53;;;15.20;99.90;;;;;;5073346;28;20543;-59
2023/10/21 04:13:21;;;;;;;2.17;1.60;;;15.20;99.90;;;;;;5073645;28;20539;-59
2023/10/21 04:15:50;;;;;;;2.23;1.43;;;15.20;99.90;;;;;;5073751;28;20441;-59
2023/10/21 04:18:17;;;;;;;1.30;1.20;;;15.20;99.90;;;;;;5073908;28;20487;-59
2023/10/21 04:20:43;;;;;;;2.23;1.43;;;15.30;99.90;;;;;;5073439;28;20495;-59
2023/10/21 04:23:10;;;;;;;1.83;1.20;;;15.30;99.90;;;;;;5073574;28;20858;-59
2023/10/21 04:25:37;;;;;;;1.70;1.33;;;15.30;99.90;;;;;;5073495;28;20859;-59
2023/10/21 04:28:04;;;;;;;2.23;1.27;;;15.30;99.90;;;;;;5074126;28;20448;-59
2023/10/21 04:30:31;;;;;;;1.60;1.50;;;15.30;99.90;;;;;;5073562;28;20483;-59
2023/10/21 04:32:59;;;;;;;2.37;1.20;;;15.30;99.90;;;;;;5073230;28;21021;-59
2023/10/21 04:35:26;;;;;;;5.93;1.40;;;15.30;99.90;;;;;;5072828;28;20815;-59
2023/10/21 04:37:53;;;;;;;2.30;1.60;;;15.30;99.90;;;;;;5073154;28;20815;-59
2023/10/21 04:40:19;;;;;;;1.57;1.47;;;15.30;99.90;;;;;;5073503;28;20488;-59
2023/10/21 04:42:46;;;;;;;3.60;1.30;;;15.30;99.90;;;;;;5073541;28;20448;-59
2023/10/21 04:45:13;;;;;;;4.53;1.33;;;15.30;99.90;;;;;;5073399;28;20441;-59
2023/10/21 04:47:40;;;;;;;4.03;1.27;;;15.30;99.90;;;;;;5073067;28;20942;-59
2023/10/21 04:50:09;;;;;;;1.93;1.30;;;15.20;99.90;;;;;;5073063;28;20445;-59
2023/10/21 04:52:37;;;;;;;2.43;1.37;;;15.20;99.90;;;;;;5073176;28;20943;-59
2023/10/21 04:55:04;;;;;;;2.63;1.30;;;15.20;99.90;;;;;;5073321;28;20447;-59
2023/10/21 04:57:30;;;;;;;2.80;1.40;;;15.20;99.90;;;;;;5073120;28;20444;-59
2023/10/21 04:59:57;;;;;;;3.90;1.27;;;15.20;99.90;;;;;;5072813;28;20566;-59
2023/10/21 05:02:24;;;;;;;2.90;1.33;;;15.10;99.90;;;;;;5073094;28;20899;-59
2023/10/21 05:04:51;;;;;;;2.77;1.40;;;15.20;99.90;;;;;;5072688;28;20452;-59
2023/10/21 05:07:19;;;;;;;2.40;2.00;;;15.10;99.90;;;;;;5073090;28;20452;-59
2023/10/21 05:09:46;;;;;;;2.43;1.50;;;15.10;99.90;;;;;;5072648;28;20900;-59
2023/10/21 05:12:13;;;;;;;3.63;1.77;;;15.10;99.90;;;;;;5073168;28;20465;-59
2023/10/21 05:14:39;;;;;;;8.10;1.77;;;15.00;99.90;;;;;;5073065;28;20448;-59
2023/10/21 05:17:06;;;;;;;2.03;1.10;;;15.10;99.90;;;;;;5073016;28;20858;-59
2023/10/21 05:19:33;;;;;;;1.77;1.37;;;15.10;99.90;;;;;;5073143;28;20547;-59
2023/10/21 05:21:59;;;;;;;3.13;1.73;;;15.00;99.90;;;;;;5073301;28;20461;-59
2023/10/21 05:24:28;;;;;;;6.10;1.80;;;15.00;99.90;;;;;;5072986;28;20445;-59
2023/10/21 05:26:54;;;;;;;3.37;1.80;;;15.10;99.90;;;;;;5073205;28;20472;-59
2023/10/21 05:29:21;;;;;;;2.77;1.50;;;15.10;99.90;;;;;;5073195;28;20437;-59
2023/10/21 05:31:49;;;;;;;1.23;1.23;;;15.10;99.90;;;;;;5072914;28;20467;-59
2023/10/21 05:34:17;;;;;;;2.00;1.80;;;15.10;99.90;;;;;;5073206;28;20445;-59
2023/10/21 05:36:44;;;;;;;2.07;1.57;;;15.10;99.90;;;;;;5072897;28;20444;-59
2023/10/21 05:39:12;;;;;;;1.70;1.40;;;15.00;99.90;;;;;;5073988;28;20444;-59
2023/10/21 05:41:40;;;;;;;1.47;1.37;;;15.10;99.90;;;;;;5073123;28;20545;-58
2023/10/21 05:44:07;;;;;;;5.40;1.77;;;15.10;99.90;;;;;;5073060;28;20451;-58
2023/10/21 05:46:34;;;;;;;2.50;2.27;;;15.00;99.90;;;;;;5073341;28;20455;-59
2023/10/21 05:49:02;;;;;;;4.23;2.00;;;15.10;99.90;;;;;;5076559;28;20436;-58
2023/10/21 05:51:28;;;;;;;4.50;2.03;;;15.00;99.90;;;;;;5077191;28;20464;-59
2023/10/21 05:53:56;;;;;;;2.10;1.47;;;15.00;99.90;;;;;;5078635;28;20938;-58
2023/10/21 05:56:23;;;;;;;2.73;1.33;;;15.00;99.90;;;;;;5077278;28;20962;-59
2023/10/21 05:58:51;;;;;;;3.70;1.53;;;14.90;99.90;;;;;;5078752;28;20444;-59
2023/10/21 06:01:18;;;;;;;2.10;1.13;;;15.00;99.90;;;;;;5077546;28;20553;-59
2023/10/21 06:03:45;;;;;;;1.30;1.20;;;15.00;99.90;;;;;;5076028;28;20468;-58
2023/10/21 06:06:11;;;;;;;3.43;1.20;;;15.00;99.90;;;;;;5075918;28;20477;-58
2023/10/21 06:08:38;;;;;;;3.73;1.37;;;15.00;99.90;;;;;;5075788;28;20452;-59
2023/10/21 06:11:05;;;;;;;1.80;1.10;;;15.00;99.90;;;;;;5075233;28;21047;-59
2023/10/21 06:13:32;;;;;;;1.83;1.27;;;15.00;99.90;;;;;;5075688;28;20861;-59
2023/10/21 06:16:00;;;;;;;3.10;1.50;;;14.90;99.90;;;;;;5075749;28;20589;-59
2023/10/21 06:18:27;;;;;;;1.77;1.60;;;14.90;99.90;;;;;;5075696;28;20791;-58
2023/10/21 06:20:54;;;;;;;1.50;1.20;;;14.90;99.90;;;;;;5075137;28;21021;-59
2023/10/21 06:23:21;;;;;;;3.03;1.20;;;14.90;99.90;;;;;;5075508;28;20476;-58
2023/10/21 06:25:48;;;;;;;2.63;1.00;;;14.90;99.90;;;;;;5075158;28;20874;-58
2023/10/21 06:28:15;;;;;;;1.87;1.30;;;15.00;99.90;;;;;;5075302;28;20453;-59
2023/10/21 06:30:42;;;;;;;4.33;1.20;;;14.90;99.90;;;;;;5075935;28;20456;-58
2023/10/21 06:33:10;;;;;;;4.73;1.43;;;14.90;99.90;;;;;;5075378;28;20444;-59
2023/10/21 06:35:37;;;;;;;1.27;1.00;;;15.00;99.90;;;;;;5075350;28;20444;-59
2023/10/21 06:38:05;;;;;;;1.20;1.10;;;15.00;99.90;;;;;;5075289;28;20484;-59
2023/10/21 06:40:31;;;;;;;1.57;0.70;;;14.90;99.90;;;;;;5075040;28;20480;-59
2023/10/21 06:42:59;;;;;;;1.70;1.17;;;14.90;99.90;;;;;;5075231;28;20449;-58
2023/10/21 06:45:26;;;;;;;0.60;0.50;;;15.00;99.90;;;;;;5075209;28;20445;-59
2023/10/21 06:47:53;;;;;;;2.57;0.73;;;15.00;99.90;;;;;;5075451;28;20480;-59
2023/10/21 06:50:21;;;;;;;1.23;0.90;;;15.00;99.90;;;;;;5075390;28;20461;-58
2023/10/21 06:52:47;;;;;;;2.20;0.83;;;15.10;99.90;;;;;;5075515;28;20441;-59
2023/10/21 06:55:14;;;;;;;0.80;0.50;;;15.00;99.90;;;;;;5076094;28;20437;-59
2023/10/21 06:57:42;;;;;;;3.33;0.90;;;15.10;99.90;;;;;;5075041;28;20456;-59
2023/10/21 07:00:10;;;;;;;1.70;0.63;;;15.10;99.90;;;;;;5074448;28;20445;-58
2023/10/21 07:02:37;;;;;;;0.60;0.60;;;15.10;99.90;;;;;;5075069;28;20473;-59
2023/10/21 07:05:09;;;;;;;0.93;0.60;;;15.20;99.90;;;;;;5074857;28;20488;-59
2023/10/21 07:07:39;;;;;;;1.40;0.60;;;15.20;99.90;;;;;;5074491;28;20425;-59
2023/10/21 07:10:09;;;;;;;1.53;0.60;;;15.10;99.90;;;;;;5074499;28;20875;-59
2023/10/21 07:12:37;;;;;;;2.83;0.63;;;15.20;99.90;;;;;;5074740;28;20480;-59
2023/10/21 07:15:05;;;;;;;2.20;0.53;;;15.20;99.90;;;;;;5074946;28;20535;-59
2023/10/21 07:17:32;;;;;;;1.43;0.40;;;15.20;99.90;;;;;;5075230;28;20472;-60
2023/10/21 07:20:00;;;;;;;0.90;0.50;;;15.20;99.90;;;;;;5074231;28;20929;-59
2023/10/21 07:22:26;;;;;;;1.03;0.40;;;15.10;99.90;;;;;;5074479;28;20477;-59
2023/10/21 07:24:58;;;;;;;0.73;0.73;;;15.20;99.90;;;;;;5074454;28;20511;-59
2023/10/21 07:27:26;;;;;;;0.70;0.50;;;15.20;99.90;;;;;;5074379;28;20440;-59
2023/10/21 07:29:55;;;;;;;0.43;0.30;;;15.20;99.90;;;;;;5074182;28;20545;-59
2023/10/21 07:32:21;;;;;;;1.93;0.50;;;15.20;99.90;;;;;;5074355;28;20444;-59
2023/10/21 07:34:48;;;;;;;0.60;0.30;;;15.20;99.90;;;;;;5074239;28;20474;-59
2023/10/21 07:37:15;;;;;;;0.70;0.50;;;15.30;99.90;;;;;;5074199;28;20472;-59
2023/10/21 07:39:42;;;;;;;1.47;0.37;;;15.40;99.90;;;;;;5074164;28;20448;-59
2023/10/21 07:42:10;;;;;;;0.70;0.50;;;15.40;99.90;;;;;;5073697;28;20480;-59
2023/10/21 07:44:36;;;;;;;1.60;0.40;;;15.50;99.90;;;;;;5073732;28;20847;-60
2023/10/21 07:47:04;;;;;;;1.07;0.30;;;15.60;99.90;;;;;;5074740;28;20471;-59
2023/10/21 07:49:31;;;;;;;0.60;0.33;;;15.60;99.90;;;;;;5073676;28;20875;-59
2023/10/21 07:51:57;;;;;;;0.93;0.40;;;15.70;99.90;;;;;;5073986;28;20511;-59
2023/10/21 07:54:24;;;;;;;1.17;0.40;;;15.70;99.90;;;;;;5073987;28;20440;-59
2023/10/21 07:56:52;;;;;;;0.40;0.40;;;15.70;99.90;;;;;;5073919;28;20447;-59
2023/10/21 07:59:20;;;;;;;1.70;0.50;;;15.70;99.90;;;;;;5073821;28;20453;-59
2023/10/21 08:01:47;;;;;;;1.50;0.47;;;15.60;99.90;;;;;;5073782;28;20568;-59
2023/10/21 08:04:14;;;;;;;0.60;0.40;;;15.70;99.90;;;;;;5073495;28;20819;-59
2023/10/21 08:06:43;;;;;;;0.70;0.43;;;15.60;99.90;;;;;;5073745;28;20449;-59
2023/10/21 08:09:10;;;;;;;0.80;0.40;;;15.60;99.90;;;;;;5073741;28;20453;-59
2023/10/21 08:11:37;;;;;;;0.60;0.30;;;15.50;99.90;;;;;;5072465;28;20900;-59
2023/10/21 08:14:03;;;;;;;0.53;0.40;;;15.60;99.90;;;;;;5073330;28;20942;-59
2023/10/21 08:16:32;;;;;;;0.87;0.30;;;15.60;99.90;;;;;;5073591;28;20799;-59
2023/10/21 08:19:00;;;;;;;2.57;0.30;;;15.60;99.90;;;;;;5073625;28;20448;-59
2023/10/21 08:21:27;;;;;;;0.80;0.30;;;15.50;99.90;;;;;;5073349;28;20512;-59
2023/10/21 08:23:54;;;;;;;1.10;0.33;;;15.50;99.90;;;;;;5073545;28;20453;-59
2023/10/21 08:26:20;;;;;;;0.70;0.30;;;15.60;99.80;;;;;;5073441;28;20475;-59
2023/10/21 08:28:47;;;;;;;1.17;0.30;;;15.70;99.70;;;;;;5073439;28;20448;-59
2023/10/21 08:31:15;;;;;;;1.03;0.87;;;15.80;99.40;;;;;;5073082;28;20997;-59
2023/10/21 08:33:51;;;;;;;1.17;0.40;;;15.80;99.10;;;;;;5072989;28;20961;-59
2023/10/21 08:36:18;;;;;;;3.70;0.47;;;15.90;98.70;;;;;;5073038;28;20894;-59
2023/10/21 08:38:45;;;;;;;0.90;0.40;;;15.90;98.70;;;;;;5073021;28;20796;-60
2023/10/21 08:41:12;;;;;;;1.60;0.63;;;15.90;98.10;;;;;;5073041;28;20483;-59
2023/10/21 08:43:42;;;;;;;0.70;0.40;;;16.00;98.20;;;;;;5072973;28;20441;-59
2023/10/21 08:46:10;;;;;;;0.87;0.40;;;16.00;98.30;;;;;;5073253;28;20448;-59
2023/10/21 08:48:39;;;;;;;0.40;0.40;;;16.10;98.40;;;;;;5073294;28;20453;-59
2023/10/21 08:51:09;;;;;;;1.33;0.40;;;16.00;96.60;;;;;;5073161;28;20461;-59
2023/10/21 08:53:39;;;;;;;2.20;0.63;;;16.10;96.80;;;;;;5073286;28;20453;-60
2023/10/21 08:56:05;;;;;;;5.70;0.57;;;16.20;97.20;;;;;;5073250;28;20463;-59
2023/10/21 08:58:32;;;;;;;0.63;0.53;;;16.20;96.80;;;;;;5073277;28;20441;-59
2023/10/21 09:01:00;;;;;;;0.97;0.40;;;16.20;96.50;;;;;;5073007;28;20491;-59
2023/10/21 09:03:26;;;;;;;1.53;0.50;;;16.10;96.30;;;;;;5073132;28;20447;-59
2023/10/21 09:06:03;;;;;;;1.60;0.43;;;16.10;96.70;;;;;;5073078;28;20498;-59
2023/10/21 09:08:32;;;;;;;4.57;0.70;;;16.10;96.40;;;;;;5073055;28;20468;-60
2023/10/21 09:10:59;;;;;;;0.90;0.50;;;16.10;96.60;;;;;;5072820;28;20476;-59
2023/10/21 09:13:30;;;;;;;2.10;0.60;;;16.10;96.00;;;;;;5073140;28;20493;-60
2023/10/21 09:15:57;;;;;;;0.90;0.40;;;16.10;95.50;;;;;;5073302;28;20467;-60
2023/10/21 09:18:24;;;;;;;1.90;0.40;;;16.20;96.10;;;;;;5073266;28;20820;-59
2023/10/21 09:20:51;;;;;;;1.60;0.57;;;16.20;95.20;;;;;;5072814;28;20465;-59
2023/10/21 09:23:18;;;;;;;1.83;0.40;;;16.40;95.00;;;;;;5076012;28;20527;-59
2023/10/21 09:25:50;;;;;;;0.80;0.50;;;16.60;94.50;;;;;;5076680;28;20513;-59
2023/10/21 09:28:21;;;;;;;3.40;0.50;;;16.70;94.10;;;;;;5076557;28;20433;-59
2023/10/21 09:30:57;;;;;;;1.63;0.50;;;16.70;93.20;;;;;;5076560;28;20472;-59
2023/10/21 09:33:25;;;;;;;0.80;0.30;;;16.60;93.60;;;;;;5076507;28;20436;-59
2023/10/21 09:36:03;;;;;;;1.83;0.80;;;16.60;93.90;;;;;;5076326;28;20432;-59
2023/10/21 09:38:36;;;;;;;2.93;1.10;;;16.60;93.50;;;;;;5076193;28;20903;-59
2023/10/21 09:41:07;;;;;;;2.33;0.60;;;16.60;93.40;;;;;;5076318;28;20492;-59
2023/10/21 09:43:37;;;;;;;1.80;0.60;;;16.60;92.20;;;;;;5076395;28;20459;-59
2023/10/21 09:46:05;;;;;;;3.90;0.70;;;16.60;93.00;;;;;;5077316;28;20437;-59
2023/10/21 09:48:36;;;;;;;2.53;0.60;;;16.70;93.90;;;;;;5075957;28;20448;-59
2023/10/21 09:51:09;;;;;;;2.80;0.57;;;16.80;92.90;;;;;;5076233;28;20464;-59
2023/10/21 09:53:40;;;;;;;3.07;0.60;;;16.70;92.20;;;;;;5076270;28;20429;-59
2023/10/21 09:56:11;;;;;;;1.03;0.60;;;16.80;92.00;;;;;;5076782;28;20429;-60
2023/10/21 09:58:41;;;;;;;3.13;0.80;;;16.80;91.20;;;;;;5076783;28;20479;-59
2023/10/21 10:01:10;;;;;;;2.10;0.83;;;16.90;91.60;;;;;;5078708;28;20468;-59
2023/10/21 10:03:39;;;;;;;2.63;0.70;;;16.90;91.90;;;;;;5076690;28;20991;-59
2023/10/21 10:06:08;;;;;;;2.97;0.60;;;17.00;91.40;;;;;;5077275;28;20441;-59
2023/10/21 10:08:36;;;;;;;1.53;0.50;;;17.20;91.80;;;;;;5072326;28;20446;-60
2023/10/21 10:11:10;;;;;;;3.07;0.77;;;17.40;90.90;;;;;;5056373;28;20999;-60
2023/10/21 10:13:42;;;;;;;1.40;0.80;;;17.60;90.00;;;;;;5056254;28;20434;-59
2023/10/21 10:16:23;;;;;;;2.40;0.53;;;17.90;87.10;;;;;;5056349;28;20513;-60
2023/10/21 10:18:51;;;;;;;2.03;0.40;;;18.10;85.40;;;;;;5056523;28;20853;-59
2023/10/21 10:21:18;;;;;;;2.40;0.50;;;18.50;83.50;;;;;;5056488;28;20827;-59
2023/10/21 10:23:53;;;;;;;1.60;0.47;;;18.80;83.00;;;;;;5056131;28;20453;-60
2023/10/21 10:26:36;;;;;;;0.83;0.57;;;19.10;79.10;;;;;;5056200;28;20445;-61
2023/10/21 10:29:17;;;;;;;1.10;0.70;;;19.30;77.00;;;;;;5055797;28;20441;-60
2023/10/21 10:31:45;;;;;;;1.80;1.07;;;19.50;75.90;;;;;;5055697;28;20500;-60
2023/10/21 10:34:12;;;;;;;0.90;0.43;;;19.40;76.10;;;;;;5054815;28;20456;-60
2023/10/21 10:36:40;;;;;;;1.73;0.70;;;19.50;75.60;;;;;;5055476;28;20874;-60
2023/10/21 10:39:06;;;;;;;2.53;1.10;;;19.90;75.30;;;;;;5055475;28;20853;-60
2023/10/21 10:41:48;;;;;;;2.83;0.80;;;20.40;73.40;;;;;;5055431;28;20498;-60
2023/10/21 10:44:15;;;;;;;5.03;0.63;;;20.90;71.40;;;;;;5055888;28;20426;-60
2023/10/21 10:46:42;;;;;;;2.60;0.63;;;21.20;69.10;;;;;;5055573;28;20442;-60
2023/10/21 10:49:10;;;;;;;1.60;0.60;;;21.40;67.90;;;;;;5055545;28;20446;-60
2023/10/21 10:51:44;;;;;;;4.43;0.77;;;21.60;65.10;;;;;;5055323;28;20461;-60
2023/10/21 10:54:17;;;;;;;2.07;0.70;;;21.90;64.50;;;;;;5055539;28;20803;-60
2023/10/21 10:56:46;;;;;;;1.50;0.43;;;22.40;60.10;;;;;;5055538;28;20804;-60
2023/10/21 10:59:14;;;;;;;10.77;1.17;;;22.60;59.30;;;;;;5055802;28;20523;-61
2023/10/21 11:01:41;;;;;;;2.70;0.73;;;22.80;57.00;;;;;;5055611;28;20528;-60
2023/10/21 11:04:08;;;;;;;2.50;0.90;;;22.80;56.10;;;;;;5055762;28;20446;-61
2023/10/21 11:06:39;;;;;;;2.13;0.83;;;23.00;56.50;;;;;;5054946;28;20446;-61
2023/10/21 11:09:15;;;;;;;7.33;0.80;;;23.30;55.60;;;;;;5054977;28;20465;-61
2023/10/21 11:11:48;;;;;;;2.60;0.67;;;23.30;53.60;;;;;;5054635;28;20469;-61
2023/10/21 11:14:16;;;;;;;2.57;0.60;;;23.30;53.20;;;;;;5054679;28;20448;-61
2023/10/21 11:16:43;;;;;;;3.00;0.73;;;23.40;54.70;;;;;;5054436;28;20998;-61
2023/10/21 11:19:09;;;;;;;2.93;0.70;;;23.80;55.30;;;;;;5054488;28;20449;-61
2023/10/21 11:21:39;;;;;;;5.47;1.17;;;24.00;52.10;;;;;;5054618;28;20465;-61
2023/10/21 11:24:07;;;;;;;4.63;1.10;;;24.10;51.30;;;;;;5054392;28;20875;-61
2023/10/21 11:26:35;;;;;;;2.50;0.80;;;24.40;51.80;;;;;;5054470;28;20548;-61
2023/10/21 11:29:05;;;;;;;2.93;0.70;;;24.50;49.70;;;;;;5054658;28;20457;-60
2023/10/21 11:31:33;;;;;;;4.10;1.00;;;24.50;48.50;;;;;;5054247;28;20496;-60
2023/10/21 11:34:09;;;;;;;6.53;1.50;;;23.90;49.90;;;;;;5054055;28;20453;-59
2023/10/21 11:36:37;;;;;;;3.33;0.70;;;23.40;51.00;;;;;;5054270;28;20433;-62
2023/10/21 11:39:12;;;;;;;3.27;1.33;;;22.80;52.20;;;;;;5054168;28;20445;-60
2023/10/21 11:41:43;;;;;;;3.27;1.20;;;21.90;52.30;;;;;;5053714;28;20978;-61
2023/10/21 11:44:11;;;;;;;3.33;1.03;;;21.00;54.40;;;;;;5054070;28;20454;-61
2023/10/21 11:46:38;;;;;;;8.38;1.40;;;20.60;56.70;;;;;;5052880;28;20814;-61
2023/10/21 11:49:05;;;;;;;4.33;1.03;;;20.40;57.90;;;;;;5054028;28;20234;-61
2023/10/21 11:51:36;;;;;;;7.43;1.17;;;20.30;57.70;;;;;;5053846;28;20592;-62
2023/10/21 11:54:03;;;;;;;3.80;1.10;;;20.80;57.00;;;;;;5053845;28;20445;-61
2023/10/21 12:05:46;;;;;;;2.63;1.13;;;22.90;51.00;;;;;;5091583;28;20568;-61
2023/10/21 12:16:35;;;;;;;2.70;1.10;;;23.90;49.70;;;;;;5083029;28;20475;-61
2023/10/21 12:19:43;;;;;;;2.20;0.90;;;24.20;46.60;;;;;;5090714;28;20520;-61
2023/10/21 12:22:42;;;;;;;1.67;0.80;;;24.10;45.10;;;;;;5090457;28;20467;-61
2023/10/21 12:29:12;;;;;;;1.80;0.87;;;24.50;44.10;;;;;;5090502;28;20783;-61
2023/10/21 12:37:19;;;;;;;8.63;1.77;;;23.80;42.60;;;;;;5090417;28;20404;-61
2023/10/21 12:39:47;;;;;;;12.33;1.60;;;23.50;43.50;;;;;;5090256;28;20447;-60
2023/10/21 12:42:27;;;;;;;3.73;1.93;;;23.20;43.90;;;;;;5090028;28;20468;-61
2023/10/21 12:44:55;;;;;;;6.20;1.70;;;22.80;45.90;;;;;;5090114;28;20539;-60
2023/10/21 12:47:22;;;;;;;3.40;1.30;;;22.40;48.10;;;;;;5089855;28;20937;-60
2023/10/21 12:49:50;;;;;;;4.37;1.27;;;22.30;48.40;;;;;;5089774;28;20443;-61
2023/10/21 12:52:17;;;;;;;3.67;1.43;;;22.00;48.70;;;;;;5089932;28;20448;-60
2023/10/21 12:54:44;;;;;;;3.10;1.60;;;21.50;48.80;;;;;;5090006;28;20441;-60
2023/10/21 12:57:14;;;;;;;5.17;1.67;;;21.00;50.00;;;;;;5089917;28;20454;-60
2023/10/21 12:59:40;;;;;;;6.70;1.30;;;20.80;50.70;;;;;;5089842;28;20497;-60
2023/10/21 13:02:08;;;;;;;3.60;1.20;;;21.00;51.00;;;;;;5089718;28;20471;-61
2023/10/21 13:04:37;;;;;;;5.20;1.43;;;21.50;50.50;;;;;;5089371;28;20483;-60
2023/10/21 13:07:05;;;;;;;4.80;1.40;;;21.80;49.60;;;;;;5089780;28;20443;-59
2023/10/21 13:09:32;;;;;;;6.27;1.47;;;21.60;49.30;;;;;;5089678;28;20470;-60
2023/10/21 13:12:00;;;;;;;5.17;1.27;;;21.40;49.90;;;;;;5089324;28;21001;-59
2023/10/21 13:14:29;;;;;;;4.13;1.43;;;21.00;50.70;;;;;;5087433;28;20444;-59
2023/10/21 13:16:55;;;;;;;5.20;1.63;;;20.70;52.00;;;;;;5076225;28;20443;-59